Time;durP1;ratioP1;P1;durP2;ratioP2;P2;SDS_P1;SDS_P2;PMS_P1;PMS_P2;Temp;Humidity;BMP_temperature;BMP_pressure;BME280_temperature;BME280_humidity;BME280_pressure;Samples;Min_cycle;Max_cycle;Signal;HPM_P1;HPM_P2
2021/04/16 00:00:50;;;;;;;8.63;1.40;;;;;;;3.80;91.39;100005.72;10542323;28;20167;-78
2021/04/16 00:06:09;;;;;;;2.10;1.13;;;;;;;3.84;91.20;100001.22;10529224;28;20178;-78
2021/04/16 00:11:28;;;;;;;1.27;1.10;;;;;;;3.88;90.50;99992.06;10528704;28;20170;-78
2021/04/16 00:16:48;;;;;;;1.17;1.07;;;;;;;3.92;91.43;99982.91;10527015;28;20206;-78
2021/04/16 00:22:08;;;;;;;1.10;0.70;;;;;;;3.93;93.67;99989.94;10543615;28;20616;-78
2021/04/16 00:27:27;;;;;;;1.40;1.27;;;;;;;3.90;94.60;99978.94;10543218;28;20695;-77
2021/04/16 00:32:46;;;;;;;1.53;1.43;;;;;;;3.80;94.27;99973.06;10541547;28;20251;-78
2021/04/16 00:38:06;;;;;;;0.93;0.80;;;;;;;3.71;95.29;99964.22;10527087;28;20206;-78
2021/04/16 00:43:28;;;;;;;5.83;2.00;;;;;;;3.81;96.84;99963.78;10527293;28;20253;-78
2021/04/16 00:48:54;;;;;;;1.97;1.00;;;;;;;3.63;97.96;99954.19;10541410;28;20170;-78
2021/04/16 00:54:17;;;;;;;1.40;1.17;;;;;;;3.58;99.39;99954.38;10526988;28;20174;-78
2021/04/16 00:59:42;;;;;;;2.50;1.07;;;;;;;3.65;99.36;99957.34;10542059;28;20216;-78
2021/04/16 01:05:03;;;;;;;1.30;0.93;;;;;;;3.72;99.16;99950.25;10525244;28;20198;-78
2021/04/16 01:10:22;;;;;;;3.03;1.90;;;;;;;3.58;99.63;99952.47;10525814;28;20178;-78
2021/04/16 01:15:42;;;;;;;1.20;0.87;;;;;;;3.54;100.00;99950.75;10539781;28;20193;-78
2021/04/16 01:21:05;;;;;;;2.23;1.53;;;;;;;3.51;100.00;99954.13;10526062;28;20203;-78
2021/04/16 01:26:29;;;;;;;7.53;1.20;;;;;;;3.63;100.00;99951.47;10540689;28;20222;-78
2021/04/16 01:31:49;;;;;;;1.03;0.93;;;;;;;3.68;98.38;99951.25;10539647;28;20174;-78
2021/04/16 01:37:08;;;;;;;2.50;1.10;;;;;;;3.67;98.37;99947.75;10540159;28;20213;-78
2021/04/16 01:42:27;;;;;;;1.23;1.13;;;;;;;3.63;98.55;99946.03;10525214;28;20174;-78
2021/04/16 01:47:55;;;;;;;2.30;1.27;;;;;;;3.70;98.03;99938.13;10539141;28;20170;-78
2021/04/16 01:53:16;;;;;;;1.80;1.30;;;;;;;3.63;97.02;99930.50;10540222;28;20616;-78
2021/04/16 01:58:36;;;;;;;1.77;1.07;;;;;;;3.60;98.21;99935.81;10539513;28;20205;-78
2021/04/16 02:03:55;;;;;;;1.70;1.10;;;;;;;3.64;97.77;99928.56;10538266;28;20202;-78
2021/04/16 02:09:17;;;;;;;1.63;1.53;;;;;;;3.70;97.42;99924.53;10524539;28;20222;-78
2021/04/16 02:14:36;;;;;;;1.10;1.00;;;;;;;3.55;98.16;99915.03;10539448;28;20174;-78
2021/04/16 02:19:57;;;;;;;1.97;0.83;;;;;;;3.67;96.71;99917.81;10538372;28;20194;-78
2021/04/16 02:25:17;;;;;;;1.07;0.97;;;;;;;3.65;97.12;99911.09;10523695;28;20252;-78
2021/04/16 02:30:36;;;;;;;1.10;1.00;;;;;;;3.61;96.75;99910.19;10538311;28;20186;-78
2021/04/16 02:35:55;;;;;;;4.47;1.53;;;;;;;3.60;97.27;99908.59;10523270;28;20288;-78
2021/04/16 02:41:14;;;;;;;1.20;1.10;;;;;;;3.58;97.24;99910.84;10523747;28;20174;-78
2021/04/16 02:46:33;;;;;;;2.60;0.90;;;;;;;3.58;96.73;99903.50;10522350;28;20248;-78
2021/04/16 02:51:54;;;;;;;1.20;0.93;;;;;;;3.54;97.08;99904.50;10538646;28;20178;-78
2021/04/16 02:57:13;;;;;;;5.00;1.10;;;;;;;3.48;97.77;99903.09;10538415;28;20213;-78
2021/04/16 03:02:33;;;;;;;1.50;0.53;;;;;;;3.47;97.64;99904.25;10537071;28;20201;-78
2021/04/16 03:07:56;;;;;;;1.40;1.30;;;;;;;3.51;96.46;99900.53;10538597;28;20166;-78
2021/04/16 03:13:14;;;;;;;1.40;1.30;;;;;;;3.36;97.54;99897.59;10523566;28;20251;-78
2021/04/16 03:18:33;;;;;;;1.97;1.83;;;;;;;3.34;96.74;99888.97;10536407;28;20243;-78
2021/04/16 03:23:52;;;;;;;2.87;0.90;;;;;;;3.15;98.70;99888.63;10538039;28;20170;-78
2021/04/16 03:29:12;;;;;;;5.87;1.60;;;;;;;2.95;100.00;99891.38;10537615;28;20222;-78
2021/04/16 03:34:30;;;;;;;1.40;0.93;;;;;;;2.83;100.00;99883.91;10537397;28;20177;-78
2021/04/16 03:39:49;;;;;;;2.93;2.70;;;;;;;2.71;100.00;99888.44;10545671;28;20182;-78
2021/04/16 03:45:10;;;;;;;0.93;0.73;;;;;;;2.65;100.00;99887.88;10530033;28;20683;-78
2021/04/16 03:50:32;;;;;;;1.50;0.93;;;;;;;2.41;100.00;99884.13;10543816;28;20525;-78
2021/04/16 03:55:52;;;;;;;0.80;0.40;;;;;;;2.28;100.00;99887.06;10544661;28;20289;-78
2021/04/16 04:01:12;;;;;;;1.00;0.80;;;;;;;2.27;100.00;99886.28;10543160;28;20237;-78
2021/04/16 04:06:31;;;;;;;0.90;0.67;;;;;;;2.13;100.00;99887.59;10544468;28;20178;-78
2021/04/16 04:11:50;;;;;;;1.60;0.83;;;;;;;1.98;100.00;99880.00;10544003;28;20249;-78
2021/04/16 04:17:23;;;;;;;1.00;0.80;;;;;;;1.91;100.00;99887.84;10542445;28;20201;-78
2021/04/16 04:22:42;;;;;;;8.13;2.03;;;;;;;1.80;100.00;99887.38;10543791;28;20174;-78
2021/04/16 04:28:04;;;;;;;1.53;1.10;;;;;;;1.65;100.00;99893.31;10527833;28;20221;-78
2021/04/16 04:33:23;;;;;;;1.20;0.73;;;;;;;1.57;100.00;99893.31;10541382;28;20576;-78
2021/04/16 04:38:42;;;;;;;0.80;0.50;;;;;;;1.58;100.00;99892.19;10527092;28;20564;-78
2021/04/16 04:44:01;;;;;;;1.00;0.80;;;;;;;1.56;100.00;99893.66;10527556;28;20167;-78
2021/04/16 04:49:20;;;;;;;1.50;1.40;;;;;;;1.55;100.00;99895.53;10525650;28;20170;-78
2021/04/16 04:54:44;;;;;;;0.90;0.70;;;;;;;1.57;100.00;99901.44;10542512;28;20178;-78
2021/04/16 05:00:06;;;;;;;1.13;0.93;;;;;;;1.61;100.00;99899.69;10542220;28;20186;-78
2021/04/16 05:05:26;;;;;;;1.17;1.00;;;;;;;1.56;100.00;99899.84;10525145;28;20178;-78
2021/04/16 05:10:45;;;;;;;1.13;1.03;;;;;;;1.69;100.00;99909.75;10541720;28;20175;-78
2021/04/16 05:16:05;;;;;;;1.53;1.30;;;;;;;1.85;100.00;99911.63;10539911;28;20237;-79
2021/04/16 05:21:25;;;;;;;1.20;1.10;;;;;;;2.09;100.00;99908.38;10526033;28;20537;-79
2021/04/16 05:26:44;;;;;;;1.93;1.63;;;;;;;2.03;100.00;99909.66;10540835;28;20218;-78
2021/04/16 05:32:04;;;;;;;1.73;1.00;;;;;;;2.05;100.00;99921.00;10539629;28;20640;-78
2021/04/16 05:37:23;;;;;;;1.93;1.80;;;;;;;2.01;100.00;99914.63;10540441;28;20202;-78
2021/04/16 05:42:42;;;;;;;2.20;1.63;;;;;;;2.06;100.00;99925.31;10525262;28;20651;-78
2021/04/16 05:48:01;;;;;;;0.90;0.63;;;;;;;2.19;100.00;99921.56;10523730;28;20636;-78
2021/04/16 05:53:20;;;;;;;1.10;1.00;;;;;;;2.38;100.00;99915.44;10540547;28;20185;-78
2021/04/16 05:58:39;;;;;;;2.90;1.00;;;;;;;2.76;100.00;99926.31;10538944;28;20205;-78
2021/04/16 06:03:58;;;;;;;1.00;0.90;;;;;;;3.13;100.00;99926.25;10538391;28;20170;-78
2021/04/16 06:09:18;;;;;;;1.00;0.70;;;;;;;3.37;100.00;99929.91;10539732;28;20170;-78
2021/04/16 06:14:37;;;;;;;0.90;0.80;;;;;;;3.43;100.00;99930.50;10539407;28;20257;-78
2021/04/16 06:19:56;;;;;;;1.00;0.60;;;;;;;3.34;100.00;99932.47;10538228;28;20170;-78
2021/04/16 06:25:18;;;;;;;1.20;1.10;;;;;;;3.50;100.00;99930.75;10538936;28;20213;-78
2021/04/16 06:30:39;;;;;;;0.90;0.50;;;;;;;3.93;96.78;99934.69;10538593;28;20186;-78
2021/04/16 06:36:05;;;;;;;2.03;1.40;;;;;;;4.17;92.73;99929.31;10538800;28;20672;-78
2021/04/16 06:41:27;;;;;;;1.30;1.20;;;;;;;4.56;89.55;99924.06;10538933;28;20177;-78
2021/04/16 06:46:51;;;;;;;1.40;1.17;;;;;;;4.93;85.75;99929.19;10537767;28;20174;-78
2021/04/16 06:52:29;;;;;;;1.73;0.83;;;;;;;4.72;84.01;99930.44;10523243;28;20163;-78
2021/04/16 06:57:54;;;;;;;1.10;0.60;;;;;;;4.87;83.45;99927.00;10523095;28;20206;-78
2021/04/16 07:03:16;;;;;;;0.90;0.57;;;;;;;5.09;83.22;99924.63;10521860;28;20179;-78
2021/04/16 07:08:45;;;;;;;0.90;0.60;;;;;;;5.40;80.71;99929.47;10524148;28;20178;-78
2021/04/16 07:14:13;;;;;;;0.90;0.60;;;;;;;5.32;79.50;99933.13;10539951;28;20572;-78
2021/04/16 07:19:34;;;;;;;1.00;0.90;;;;;;;5.33;79.63;99930.03;10529003;28;20664;-78
2021/04/16 07:24:54;;;;;;;1.50;1.13;;;;;;;5.41;80.12;99928.34;10546064;28;20257;-78
2021/04/16 07:30:45;;;;;;;1.47;1.00;;;;;;;5.67;79.56;99922.09;10545217;28;20221;-77
2021/04/16 07:36:13;;;;;;;0.80;0.40;;;;;;;6.02;76.72;99920.38;10545257;28;20205;-78
2021/04/16 07:41:39;;;;;;;1.03;0.93;;;;;;;6.06;75.64;99921.25;10545420;28;20182;-78
2021/04/16 07:47:01;;;;;;;1.00;0.80;;;;;;;6.12;74.16;99919.88;10528731;28;20182;-78
2021/04/16 07:52:31;;;;;;;1.97;1.77;;;;;;;6.62;74.20;99922.75;10545018;28;20178;-78
2021/04/16 07:57:50;;;;;;;0.90;0.50;;;;;;;6.45;72.30;99928.56;10528717;28;20202;-78
2021/04/16 08:03:15;;;;;;;0.90;0.73;;;;;;;6.21;73.19;99928.72;10543222;28;20178;-78
2021/04/16 08:08:34;;;;;;;1.00;0.80;;;;;;;6.14;75.32;99931.25;10544401;28;20170;-76
2021/04/16 08:14:25;;;;;;;1.23;0.93;;;;;;;6.73;72.41;99927.34;10544246;28;20616;-78
2021/04/16 08:19:45;;;;;;;2.43;1.00;;;;;;;6.98;70.19;99926.00;10527132;28;20178;-77
2021/04/16 08:25:13;;;;;;;1.30;0.80;;;;;;;6.64;69.94;99920.44;10543780;28;20190;-77
2021/04/16 08:30:55;;;;;;;1.10;0.90;;;;;;;6.60;69.41;99928.56;10528200;28;20186;-76
2021/04/16 08:36:26;;;;;;;3.47;1.00;;;;;;;6.68;68.61;99926.81;10542948;28;20217;-77
2021/04/16 08:41:52;;;;;;;1.33;1.23;;;;;;;6.70;67.90;99930.00;10543259;28;20206;-77
2021/04/16 08:47:23;;;;;;;1.10;0.90;;;;;;;7.15;66.69;99929.13;10541550;28;20173;-77
2021/04/16 08:52:58;;;;;;;1.40;0.70;;;;;;;7.49;64.34;99922.88;10527415;28;20174;-77
2021/04/16 08:58:29;;;;;;;0.90;0.70;;;;;;;7.58;63.25;99933.59;10526247;28;20669;-78
2021/04/16 09:03:50;;;;;;;1.00;0.57;;;;;;;7.47;63.46;99929.88;10540831;28;20178;-77
2021/04/16 09:09:13;;;;;;;1.10;0.83;;;;;;;7.23;63.34;99922.69;10535888;28;20182;-77
2021/04/16 09:14:32;;;;;;;0.80;0.50;;;;;;;7.24;64.49;99912.50;10526567;28;20174;-77
2021/04/16 09:19:57;;;;;;;1.67;0.90;;;;;;;7.60;62.69;99923.88;10540297;28;20201;-77
2021/04/16 09:25:49;;;;;;;1.00;0.67;;;;;;;7.46;62.96;99925.53;10541366;28;20182;-77
2021/04/16 09:31:24;;;;;;;1.20;1.10;;;;;;;7.47;62.14;99927.91;10476392;28;20190;-76
2021/04/16 09:36:49;;;;;;;1.00;0.70;;;;;;;7.30;62.66;99933.00;10483353;28;20210;-77
2021/04/16 09:42:33;;;;;;;1.97;1.87;;;;;;;6.97;63.21;99934.53;10498784;28;20186;-77
2021/04/16 09:47:54;;;;;;;1.87;1.10;;;;;;;6.71;64.44;99928.81;10497320;28;20175;-78
2021/04/16 09:53:24;;;;;;;1.07;0.90;;;;;;;6.68;65.78;99938.53;10498351;28;20533;-77
2021/04/16 09:58:49;;;;;;;1.97;0.93;;;;;;;6.60;65.94;99939.50;10482520;28;20203;-77
2021/04/16 10:04:13;;;;;;;1.40;1.03;;;;;;;6.60;67.70;99936.75;10480977;28;20261;-77
2021/04/16 10:09:32;;;;;;;1.13;0.90;;;;;;;6.37;67.79;99937.72;10497892;28;20528;-77
2021/04/16 10:14:51;;;;;;;0.90;0.80;;;;;;;6.37;67.41;99949.44;10497271;28;20179;-77
2021/04/16 10:20:17;;;;;;;1.30;1.00;;;;;;;6.27;67.89;99934.69;10481252;28;20637;-78
2021/04/16 12:41:44;;;;;;;1.30;1.10;;;;;;;8.14;68.74;99930.09;10543270;28;20186;-78
2021/04/16 12:47:11;;;;;;;2.70;0.90;;;;;;;8.42;67.59;99919.66;10541814;28;20162;-75
2021/04/16 12:52:31;;;;;;;1.67;1.30;;;;;;;8.21;66.06;99919.28;10527398;28;20163;-75
2021/04/16 12:57:55;;;;;;;1.00;0.80;;;;;;;7.46;66.98;99918.09;10526757;28;20209;-76
2021/04/16 13:03:22;;;;;;;1.53;1.43;;;;;;;7.43;70.41;99913.34;10541011;28;20174;-78
2021/04/16 13:08:41;;;;;;;2.63;2.43;;;;;;;7.07;73.02;99912.13;10526768;28;20174;-77
2021/04/16 13:14:00;;;;;;;3.37;2.10;;;;;;;6.98;74.71;99906.84;10534095;28;20174;-77
2021/04/16 13:19:29;;;;;;;6.67;2.07;;;;;;;7.15;72.55;99904.50;10539865;28;20288;-77
2021/04/16 13:24:50;;;;;;;2.70;1.33;;;;;;;7.61;69.91;99900.03;10525995;28;20572;-77
2021/04/16 13:30:11;;;;;;;7.60;1.23;;;;;;;7.90;66.44;99895.56;10525328;28;20221;-77
2021/04/16 13:35:40;;;;;;;2.33;1.40;;;;;;;8.04;67.04;99895.03;10524440;28;20288;-77
2021/04/16 13:41:01;;;;;;;1.63;1.30;;;;;;;8.05;66.72;99897.41;10525585;28;20178;-77
2021/04/16 13:46:23;;;;;;;7.53;1.63;;;;;;;7.98;64.99;99885.53;10539232;28;20178;-77
2021/04/16 13:51:42;;;;;;;1.97;1.03;;;;;;;7.47;65.49;99883.31;10540215;28;20174;-77
2021/04/16 13:57:04;;;;;;;6.20;2.73;;;;;;;7.48;68.93;99882.16;10524496;28;20214;-77
2021/04/16 14:02:37;;;;;;;3.27;1.87;;;;;;;7.87;67.79;99876.31;10523358;28;20162;-77
2021/04/16 14:08:02;;;;;;;12.77;2.87;;;;;;;7.89;66.89;99874.00;10524514;28;20162;-77
2021/04/16 14:13:21;;;;;;;2.90;1.53;;;;;;;8.06;66.70;99862.59;10524452;28;20182;-77
2021/04/16 14:18:47;;;;;;;2.00;1.80;;;;;;;8.08;65.91;99860.25;10522045;28;20201;-77
2021/04/16 14:24:12;;;;;;;1.77;1.37;;;;;;;8.17;64.90;99856.19;10539524;28;20174;-77
2021/04/16 14:29:31;;;;;;;4.43;1.47;;;;;;;8.23;64.34;99851.97;10538607;28;20684;-77
2021/04/16 14:34:49;;;;;;;1.10;0.80;;;;;;;8.40;64.06;99853.44;10537894;28;20600;-76
2021/04/16 14:40:10;;;;;;;1.27;0.90;;;;;;;8.56;63.10;99854.13;10539097;28;20198;-79
2021/04/16 14:45:35;;;;;;;3.13;1.13;;;;;;;8.59;63.18;99847.88;10539124;28;20178;-76
2021/04/16 14:50:58;;;;;;;2.37;2.10;;;;;;;8.16;62.96;99851.03;10530755;28;20186;-76
2021/04/16 14:56:19;;;;;;;1.83;0.93;;;;;;;8.30;63.31;99854.06;10538604;28;20210;-76
2021/04/16 15:01:38;;;;;;;1.30;0.97;;;;;;;8.09;64.07;99845.41;10537540;28;20245;-76
2021/04/16 15:07:04;;;;;;;2.23;1.97;;;;;;;7.97;64.11;99864.78;10538565;28;20179;-77
2021/04/16 15:12:25;;;;;;;6.27;1.80;;;;;;;8.06;63.53;99848.91;10523334;28;20182;-76
2021/04/16 15:17:44;;;;;;;1.77;1.67;;;;;;;8.10;63.68;99844.25;10536880;28;20205;-76
2021/04/16 15:23:09;;;;;;;1.40;1.00;;;;;;;8.04;63.45;99853.94;10538182;28;20556;-76
2021/04/16 15:28:51;;;;;;;0.90;0.70;;;;;;;7.92;63.91;99857.63;10522405;28;20245;-77
2021/04/16 15:51:02;;;;;;;1.00;0.70;;;;;;;7.77;64.03;99849.50;10544718;28;20636;-76
2021/04/16 15:56:27;;;;;;;2.50;1.40;;;;;;;7.60;64.81;99843.69;10544683;28;20289;-75
2021/04/16 16:01:46;;;;;;;7.43;0.90;;;;;;;7.63;65.16;99837.50;10528224;28;20182;-76
2021/04/16 16:07:06;;;;;;;3.13;1.60;;;;;;;7.67;65.04;99832.88;10544383;28;20490;-76
2021/04/16 16:12:25;;;;;;;1.40;1.00;;;;;;;7.73;65.80;99832.22;10543898;28;20178;-75
2021/04/16 16:17:44;;;;;;;2.47;2.30;;;;;;;7.85;64.12;99825.78;10542530;28;20205;-76
2021/04/16 16:23:07;;;;;;;14.30;3.97;;;;;;;7.82;65.10;99824.56;10537041;28;20167;-75
2021/04/16 16:28:29;;;;;;;3.23;1.83;;;;;;;7.81;64.98;99835.88;10542968;28;20221;-76
2021/04/16 16:33:48;;;;;;;1.50;1.40;;;;;;;7.79;65.50;99830.00;10541997;28;20277;-75
2021/04/16 16:39:07;;;;;;;2.73;1.47;;;;;;;7.88;64.91;99820.38;10542736;28;20205;-75
2021/04/16 16:44:34;;;;;;;1.40;1.30;;;;;;;7.82;65.05;99818.28;10542491;28;20569;-75
2021/04/16 16:49:53;;;;;;;1.87;1.20;;;;;;;7.79;65.24;99827.25;10541723;28;20234;-75
2021/04/16 16:55:12;;;;;;;6.70;4.03;;;;;;;7.63;65.89;99823.81;10542428;28;20193;-76
2021/04/16 17:00:42;;;;;;;2.67;1.67;;;;;;;7.60;66.47;99824.53;10527061;28;20170;-75
2021/04/16 17:06:03;;;;;;;1.60;1.13;;;;;;;7.50;66.75;99831.38;10526758;28;20187;-75
2021/04/16 17:11:26;;;;;;;1.03;0.90;;;;;;;7.52;66.29;99820.84;10526781;28;20178;-75
2021/04/16 17:16:45;;;;;;;1.40;1.30;;;;;;;7.45;67.66;99819.94;10540490;28;20202;-74
2021/04/16 17:22:06;;;;;;;2.60;1.23;;;;;;;7.41;68.05;99828.06;10526294;28;20173;-76
2021/04/16 17:27:30;;;;;;;6.30;1.13;;;;;;;7.47;67.94;99821.13;10525352;28;20222;-76
2021/04/16 17:32:49;;;;;;;11.07;0.93;;;;;;;7.39;67.95;99827.63;10539769;28;20178;-76
2021/04/16 17:38:09;;;;;;;1.10;0.80;;;;;;;7.32;68.77;99829.41;10540549;28;20292;-77
2021/04/16 17:43:39;;;;;;;1.20;1.10;;;;;;;7.27;69.08;99822.28;10540816;28;20193;-76
2021/04/16 17:48:58;;;;;;;9.70;1.50;;;;;;;7.24;69.46;99822.22;10524076;28;20173;-76
2021/04/16 17:54:18;;;;;;;1.47;1.37;;;;;;;7.22;69.70;99825.31;10524216;28;20272;-74
2021/04/16 17:59:37;;;;;;;2.63;1.90;;;;;;;7.14;69.52;99826.31;10524058;28;20209;-74
2021/04/16 18:04:56;;;;;;;1.97;1.00;;;;;;;7.10;69.18;99829.34;10538362;28;20174;-76
2021/04/16 18:10:37;;;;;;;1.10;1.00;;;;;;;7.05;69.52;99824.94;10539695;28;20182;-76
2021/04/16 18:15:56;;;;;;;2.30;1.77;;;;;;;7.07;69.62;99836.31;10522456;28;20205;-74
2021/04/16 18:21:27;;;;;;;2.93;2.00;;;;;;;6.98;69.97;99832.19;10524203;28;20542;-76
2021/04/16 18:27:06;;;;;;;1.23;1.13;;;;;;;7.11;69.97;99836.41;10538906;28;20225;-76
2021/04/16 18:32:26;;;;;;;2.07;1.87;;;;;;;6.85;70.58;99828.78;10537958;28;20174;-73
2021/04/16 18:37:45;;;;;;;2.63;1.67;;;;;;;6.72;71.47;99832.78;10538835;28;20209;-74
2021/04/16 18:43:06;;;;;;;1.53;1.07;;;;;;;6.69;72.38;99843.66;10552722;28;20174;-74
2021/04/16 18:48:25;;;;;;;1.20;1.10;;;;;;;6.57;73.07;99843.72;10537815;28;20166;-74
2021/04/16 18:53:45;;;;;;;3.73;2.57;;;;;;;6.63;73.15;99847.78;10538895;28;20629;-75
2021/04/16 18:59:05;;;;;;;1.87;1.63;;;;;;;6.56;72.73;99844.88;10523079;28;20577;-75
2021/04/16 19:04:25;;;;;;;1.90;1.17;;;;;;;6.40;73.62;99849.56;10538107;28;20209;-74
2021/04/16 19:09:56;;;;;;;4.77;1.50;;;;;;;6.41;74.08;99851.16;10531587;28;20668;-74
2021/04/16 19:15:18;;;;;;;7.90;6.27;;;;;;;6.39;74.60;99856.97;10546547;28;20625;-77
2021/04/16 19:20:39;;;;;;;9.97;6.37;;;;;;;6.29;75.61;99856.72;10545122;28;20174;-74
2021/04/16 19:26:03;;;;;;;1.40;1.10;;;;;;;6.15;77.05;99856.34;10546144;28;20255;-74
2021/04/16 19:31:26;;;;;;;2.20;1.30;;;;;;;6.14;77.41;99860.22;10544488;28;20174;-74
2021/04/16 19:36:49;;;;;;;2.90;1.93;;;;;;;6.19;77.82;99859.97;10545733;28;20198;-73
2021/04/16 19:42:09;;;;;;;1.30;1.00;;;;;;;6.11;77.79;99863.66;10545557;28;20190;-74
2021/04/16 20:21:08;;;;;;;1.40;1.20;;;;;;;5.77;80.51;99858.84;10544174;28;20562;-74
2021/04/16 20:26:35;;;;;;;1.57;1.47;;;;;;;5.75;82.20;99861.09;10543914;28;20214;-74
2021/04/16 20:31:59;;;;;;;4.10;1.97;;;;;;;5.72;82.19;99845.44;10542413;28;20529;-74
2021/04/16 20:37:20;;;;;;;2.80;2.10;;;;;;;5.65;82.55;99850.66;10543124;28;20734;-74
2021/04/16 20:42:39;;;;;;;1.40;1.23;;;;;;;5.63;83.06;99847.50;10543246;28;20213;-73
2021/04/16 20:47:59;;;;;;;5.00;1.17;;;;;;;5.58;84.29;99850.47;10541883;28;20162;-76
2021/04/16 20:53:18;;;;;;;2.10;1.40;;;;;;;5.54;82.18;99849.59;10527287;28;20201;-75
2021/04/16 20:58:37;;;;;;;2.83;1.17;;;;;;;5.57;82.64;99854.34;10542234;28;20289;-76
2021/04/16 21:03:59;;;;;;;2.17;1.33;;;;;;;5.55;82.56;99851.19;10541186;28;20174;-76
2021/04/16 21:09:34;;;;;;;5.63;2.83;;;;;;;5.49;83.00;99858.00;10542026;28;20170;-76
2021/04/16 21:14:55;;;;;;;1.80;1.67;;;;;;;5.56;83.09;99858.25;10526630;28;20182;-76
2021/04/16 21:20:38;;;;;;;1.70;1.60;;;;;;;5.47;83.09;99856.78;10540357;28;20178;-75
2021/04/16 21:25:59;;;;;;;2.00;1.80;;;;;;;5.47;84.54;99859.50;10541185;28;20229;-75
2021/04/16 21:31:27;;;;;;;2.03;1.93;;;;;;;5.51;83.28;99863.94;10540041;28;20177;-75
2021/04/16 21:36:46;;;;;;;1.23;1.13;;;;;;;5.29;85.15;99862.88;10525488;28;20205;-75
2021/04/16 21:42:15;;;;;;;2.20;2.00;;;;;;;5.19;86.02;99860.63;10525816;28;20290;-76
2021/04/16 21:47:38;;;;;;;8.90;2.90;;;;;;;5.33;84.56;99853.66;10539337;28;20170;-74
2021/04/16 21:53:00;;;;;;;3.13;2.90;;;;;;;5.34;84.59;99849.78;10540616;28;20671;-73
2021/04/16 21:58:21;;;;;;;4.13;2.13;;;;;;;5.24;84.54;99861.19;10539953;28;20229;-74
2021/04/16 22:03:46;;;;;;;1.20;0.97;;;;;;;5.21;85.53;99853.66;10538841;28;20189;-74
2021/04/16 22:09:14;;;;;;;1.53;0.90;;;;;;;5.17;86.37;99860.97;10540078;28;20178;-74
2021/04/16 22:14:36;;;;;;;2.97;2.40;;;;;;;5.29;85.21;99860.94;10539819;28;20178;-74
2021/04/16 22:19:56;;;;;;;3.70;1.40;;;;;;;5.15;87.40;99862.47;10522497;28;20206;-76
2021/04/16 22:25:42;;;;;;;1.20;1.10;;;;;;;5.16;87.19;99853.16;10523924;28;20174;-74
2021/04/16 22:31:13;;;;;;;2.50;2.10;;;;;;;5.13;86.40;99853.81;10538031;28;20499;-73
2021/04/16 22:36:37;;;;;;;1.27;1.00;;;;;;;5.03;87.77;99843.38;10539045;28;20210;-73
2021/04/16 22:42:11;;;;;;;1.70;1.37;;;;;;;4.95;88.44;99841.59;10548640;28;20252;-74
2021/04/16 22:47:34;;;;;;;2.90;2.50;;;;;;;4.94;88.57;99834.53;10536301;28;20186;-74
2021/04/16 22:52:57;;;;;;;1.00;0.80;;;;;;;5.07;88.51;99836.91;10552843;28;20230;-74
2021/04/16 22:58:17;;;;;;;3.00;1.70;;;;;;;5.02;88.54;99830.88;10552442;28;20660;-74
2021/04/16 23:03:41;;;;;;;2.03;1.60;;;;;;;4.93;90.46;99827.50;10551567;28;20174;-74
2021/04/16 23:09:05;;;;;;;4.03;1.90;;;;;;;4.89;91.59;99826.63;10552763;28;20543;-74
2021/04/16 23:14:28;;;;;;;3.57;2.60;;;;;;;4.82;93.33;99819.00;10537169;28;20535;-75
2021/04/16 23:19:47;;;;;;;1.53;1.37;;;;;;;4.88;93.81;99817.66;10550594;28;20201;-74
2021/04/16 23:25:13;;;;;;;1.97;1.73;;;;;;;4.84;94.56;99819.47;10565716;28;20193;-74
2021/04/16 23:30:37;;;;;;;1.30;1.17;;;;;;;4.89;94.40;99810.25;10536977;28;20632;-74
2021/04/16 23:35:56;;;;;;;2.07;1.80;;;;;;;4.89;96.71;99804.81;10551869;28;20285;-74
2021/04/16 23:41:15;;;;;;;2.97;2.30;;;;;;;4.77;98.22;99802.09;10552067;28;20640;-74
2021/04/16 23:46:37;;;;;;;3.37;1.93;;;;;;;4.76;99.54;99795.06;10550364;28;20177;-74
2021/04/16 23:51:58;;;;;;;2.43;2.00;;;;;;;4.75;99.48;99788.03;10548318;28;20652;-74
2021/04/16 23:57:18;;;;;;;1.90;1.47;;;;;;;4.74;98.52;99778.25;10544959;28;20206;-74
